Time;durP1;ratioP1;P1;durP2;ratioP2;P2;SDS_P1;SDS_P2;PMS_P1;PMS_P2;Temp;Humidity;BMP_temperature;BMP_pressure;BME280_temperature;BME280_humidity;BME280_pressure;Samples;Min_cycle;Max_cycle;Signal;HPM_P1;HPM_P2
2020/12/27 00:01:03;;;;;;;;;;;;;;;;;;5068525;28;19908;-76
2020/12/27 00:03:29;;;;;;;;;;;;;;;;;;5072915;28;19916;-75
2020/12/27 00:05:55;;;;;;;;;;;;;;;;;;5062591;28;19952;-75
2020/12/27 00:08:21;;;;;;;;;;;;;;;;;;5067532;28;19952;-74
2020/12/27 00:10:47;;;;;;;;;;;;;;;;;;5068388;28;19972;-74
2020/12/27 00:13:13;;;;;;;;;;;;;;;;;;5069292;28;19959;-74
2020/12/27 00:15:39;;;;;;;;;;;;;;;;;;5053366;28;19912;-76
2020/12/27 00:18:05;;;;;;;;;;;;;;;;;;5060599;28;19908;-75
2020/12/27 00:20:31;;;;;;;;;;;;;;;;;;5053934;28;19962;-74
2020/12/27 00:22:56;;;;;;;;;;;;;;;;;;5056207;28;19925;-75
2020/12/27 00:25:22;;;;;;;;;;;;;;;;;;5071711;28;19913;-75
2020/12/27 00:27:48;;;;;;;;;;;;;;;;;;5057230;28;19912;-75
2020/12/27 00:30:14;;;;;;;;;;;;;;;;;;5064824;28;19908;-74
2020/12/27 00:32:40;;;;;;;;;;;;;;;;;;5080435;28;19909;-75
2020/12/27 00:35:06;;;;;;;;;;;;;;;;;;5070843;28;20379;-75
2020/12/27 00:37:32;;;;;;;;;;;;;;;;;;5050330;28;19975;-76
2020/12/27 00:39:58;;;;;;;;;;;;;;;;;;5073379;28;19912;-75
2020/12/27 00:42:24;;;;;;;;;;;;;;;;;;5073552;28;20362;-75
2020/12/27 00:44:50;;;;;;;;;;;;;;;;;;5071270;28;19913;-75
2020/12/27 00:47:16;;;;;;;;;;;;;;;;;;5052460;28;20390;-76
2020/12/27 00:49:42;;;;;;;;;;;;;;;;;;5072013;28;19923;-75
2020/12/27 00:52:08;;;;;;;;;;;;;;;;;;5062957;28;19940;-75
2020/12/27 00:54:34;;;;;;;;;;;;;;;;;;5056277;28;19959;-75
2020/12/27 00:57:00;;;;;;;;;;;;;;;;;;5061385;28;19952;-75
2020/12/27 00:59:26;;;;;;;;;;;;;;;;;;5063366;28;19960;-75
2020/12/27 01:01:51;;;;;;;;;;;;;;;;;;5071137;28;19916;-74
2020/12/27 01:04:17;;;;;;;;;;;;;;;;;;5070654;28;19936;-75
2020/12/27 01:06:43;;;;;;;;;;;;;;;;;;5071635;28;19952;-75
2020/12/27 01:09:09;;;;;;;;;;;;;;;;;;5069140;28;19946;-74
2020/12/27 01:11:35;;;;;;;;;;;;;;;;;;5069524;28;19964;-75
2020/12/27 01:14:01;;;;;;;;;;;;;;;;;;5070974;28;20401;-74
2020/12/27 01:16:27;;;;;;;;;;;;;;;;;;5069753;28;20387;-75
2020/12/27 01:18:53;;;;;;;;;;;;;;;;;;5062493;28;19960;-74
2020/12/27 01:21:19;;;;;;;;;;;;;;;;;;5070056;28;19958;-74
2020/12/27 01:23:45;;;;;;;;;;;;;;;;;;5068201;28;19966;-75
2020/12/27 01:26:11;;;;;;;;;;;;;;;;;;5069147;28;19964;-75
2020/12/27 01:28:39;;;;;;;;;;;;;;;;;;5067660;28;19943;-76
2020/12/27 01:31:05;;;;;;;;;;;;;;;;;;5073929;28;19913;-75
2020/12/27 01:33:31;;;;;;;;;;;;;;;;;;5066122;28;20382;-75
2020/12/27 01:35:57;;;;;;;;;;;;;;;;;;5069213;28;20673;-75
2020/12/27 01:38:22;;;;;;;;;;;;;;;;;;5068013;28;19956;-74
2020/12/27 01:40:49;;;;;;;;;;;;;;;;;;5066840;28;19951;-75
2020/12/27 01:43:15;;;;;;;;;;;;;;;;;;5067477;28;19916;-75
2020/12/27 01:45:41;;;;;;;;;;;;;;;;;;5067380;28;19998;-76
2020/12/27 01:48:06;;;;;;;;;;;;;;;;;;5060890;28;20010;-75
2020/12/27 01:50:34;;;;;;;;;;;;;;;;;;5067926;28;19982;-75
2020/12/27 01:53:00;;;;;;;;;;;;;;;;;;5069239;28;19912;-74
2020/12/27 01:55:25;;;;;;;;;;;;;;;;;;5065436;28;19970;-74
2020/12/27 01:57:51;;;;;;;;;;;;;;;;;;5068382;28;19962;-74
2020/12/27 02:00:17;;;;;;;;;;;;;;;;;;5070325;28;19944;-75
2020/12/27 02:02:43;;;;;;;;;;;;;;;;;;5068246;28;19921;-75
2020/12/27 02:05:09;;;;;;;;;;;;;;;;;;5068808;28;19917;-74
2020/12/27 02:07:35;;;;;;;;;;;;;;;;;;5066633;28;19959;-74
2020/12/27 02:10:01;;;;;;;;;;;;;;;;;;5067640;28;19956;-75
2020/12/27 02:12:27;;;;;;;;;;;;;;;;;;5069322;28;20013;-75
2020/12/27 02:14:53;;;;;;;;;;;;;;;;;;5064205;28;19975;-76
2020/12/27 02:17:19;;;;;;;;;;;;;;;;;;5067828;28;19970;-76
2020/12/27 02:19:45;;;;;;;;;;;;;;;;;;5068136;28;19956;-76
2020/12/27 02:22:11;;;;;;;;;;;;;;;;;;5068963;28;19971;-75
2020/12/27 02:24:37;;;;;;;;;;;;;;;;;;5067863;28;19944;-74
2020/12/27 02:27:03;;;;;;;;;;;;;;;;;;5062693;28;19912;-74
2020/12/27 02:29:29;;;;;;;;;;;;;;;;;;5069079;28;19913;-74
2020/12/27 02:31:55;;;;;;;;;;;;;;;;;;5072102;28;19987;-75
2020/12/27 02:34:21;;;;;;;;;;;;;;;;;;5068541;28;19960;-74
2020/12/27 02:36:47;;;;;;;;;;;;;;;;;;5072112;28;19962;-76
2020/12/27 02:39:13;;;;;;;;;;;;;;;;;;5104995;28;19912;-75
2020/12/27 02:41:39;;;;;;;;;;;;;;;;;;5064023;28;19916;-75
2020/12/27 02:44:05;;;;;;;;;;;;;;;;;;5071547;28;20003;-74
2020/12/27 02:46:31;;;;;;;;;;;;;;;;;;5079026;22;20017;-70
2020/12/27 02:48:56;;;;;;;;;;;;;;;;;;5068062;28;19962;-68
2020/12/27 02:51:22;;;;;;;;;;;;;;;;;;5086200;28;19954;-68
2020/12/27 02:53:48;;;;;;;;;;;;;;;;;;5077880;28;20494;-69
2020/12/27 02:56:14;;;;;;;;;;;;;;;;;;5084646;28;19916;-69
2020/12/27 02:58:40;;;;;;;;;;;;;;;;;;5093333;28;19930;-69
2020/12/27 03:01:06;;;;;;;;;;;;;;;;;;5096796;28;19916;-69
2020/12/27 03:03:32;;;;;;;;;;;;;;;;;;5067919;28;19916;-68
2020/12/27 03:05:58;;;;;;;;;;;;;;;;;;5069744;28;19955;-68
2020/12/27 03:08:24;;;;;;;;;;;;;;;;;;5076890;28;20402;-68
2020/12/27 03:10:50;;;;;;;;;;;;;;;;;;5086609;28;20006;-68
2020/12/27 03:13:16;;;;;;;;;;;;;;;;;;5067621;28;19920;-68
2020/12/27 03:15:41;;;;;;;;;;;;;;;;;;5065948;28;19966;-68
2020/12/27 03:18:07;;;;;;;;;;;;;;;;;;5067387;28;20090;-69
2020/12/27 03:20:33;;;;;;;;;;;;;;;;;;5085604;28;20390;-67
2020/12/27 03:22:59;;;;;;;;;;;;;;;;;;5068065;28;20007;-69
2020/12/27 03:25:25;;;;;;;;;;;;;;;;;;5068341;28;19912;-69
2020/12/27 03:27:51;;;;;;;;;;;;;;;;;;5088312;28;19913;-70
2020/12/27 03:30:17;;;;;;;;;;;;;;;;;;5061597;28;20498;-69
2020/12/27 03:32:43;;;;;;;;;;;;;;;;;;5088934;28;19955;-68
2020/12/27 03:35:09;;;;;;;;;;;;;;;;;;5092525;28;20514;-69
2020/12/27 03:37:36;;;;;;;;;;;;;;;;;;5073838;28;19920;-68
2020/12/27 03:40:02;;;;;;;;;;;;;;;;;;5091482;28;19913;-69
2020/12/27 03:42:27;;;;;;;;;;;;;;;;;;5089460;28;19972;-68
2020/12/27 03:44:53;;;;;;;;;;;;;;;;;;5091396;28;20001;-68
2020/12/27 03:47:19;;;;;;;;;;;;;;;;;;5092449;28;20427;-69
2020/12/27 03:49:45;;;;;;;;;;;;;;;;;;5089684;28;19944;-68
2020/12/27 03:52:11;;;;;;;;;;;;;;;;;;5073465;28;20002;-69
2020/12/27 03:54:37;;;;;;;;;;;;;;;;;;5067047;28;20379;-68
2020/12/27 03:57:03;;;;;;;;;;;;;;;;;;5089847;28;19916;-68
2020/12/27 03:59:29;;;;;;;;;;;;;;;;;;5090283;28;20383;-68
2020/12/27 04:01:55;;;;;;;;;;;;;;;;;;5091901;28;19997;-68
2020/12/27 04:04:21;;;;;;;;;;;;;;;;;;5090565;28;19950;-67
2020/12/27 04:06:46;;;;;;;;;;;;;;;;;;5091792;28;20416;-68
2020/12/27 04:09:12;;;;;;;;;;;;;;;;;;5073009;28;19998;-68
2020/12/27 04:11:38;;;;;;;;;;;;;;;;;;5091807;28;20319;-68
2020/12/27 04:14:04;;;;;;;;;;;;;;;;;;5092091;28;19952;-68
2020/12/27 04:16:30;;;;;;;;;;;;;;;;;;5091208;28;19995;-69
2020/12/27 04:18:56;;;;;;;;;;;;;;;;;;5091834;28;20337;-69
2020/12/27 04:21:22;;;;;;;;;;;;;;;;;;5092207;28;19912;-68
2020/12/27 04:23:48;;;;;;;;;;;;;;;;;;5090481;28;20003;-69
2020/12/27 04:26:14;;;;;;;;;;;;;;;;;;5092823;28;20002;-68
2020/12/27 04:28:39;;;;;;;;;;;;;;;;;;5071357;28;20383;-68
2020/12/27 04:31:05;;;;;;;;;;;;;;;;;;5091938;28;20529;-68
2020/12/27 04:33:31;;;;;;;;;;;;;;;;;;5072599;28;19944;-69
2020/12/27 04:35:57;;;;;;;;;;;;;;;;;;5073906;28;19945;-68
2020/12/27 04:38:23;;;;;;;;;;;;;;;;;;5089923;28;20034;-68
2020/12/27 04:40:49;;;;;;;;;;;;;;;;;;5082130;28;19958;-68
2020/12/27 04:43:15;;;;;;;;;;;;;;;;;;5090407;28;19920;-68
2020/12/27 04:45:41;;;;;;;;;;;;;;;;;;5071522;28;20372;-68
2020/12/27 04:48:07;;;;;;;;;;;;;;;;;;5066429;28;19916;-67
2020/12/27 04:50:33;;;;;;;;;;;;;;;;;;5083141;28;19912;-69
2020/12/27 04:52:58;;;;;;;;;;;;;;;;;;5089481;28;20403;-68
2020/12/27 04:55:24;;;;;;;;;;;;;;;;;;5089517;28;20384;-68
2020/12/27 04:57:51;;;;;;;;;;;;;;;;;;5087439;28;19951;-69
2020/12/27 05:00:16;;;;;;;;;;;;;;;;;;5069737;28;20387;-66
2020/12/27 05:02:42;;;;;;;;;;;;;;;;;;5088452;28;20033;-68
2020/12/27 05:05:13;;;;;;;;;;;;;;;;;;5090835;28;20001;-69
2020/12/27 05:07:39;;;;;;;;;;;;;;;;;;5088038;28;19916;-68
2020/12/27 05:10:05;;;;;;;;;;;;;;;;;;5062647;28;20345;-68
2020/12/27 05:12:31;;;;;;;;;;;;;;;;;;5084676;28;20011;-68
2020/12/27 05:14:57;;;;;;;;;;;;;;;;;;5063740;28;19966;-69
2020/12/27 05:17:22;;;;;;;;;;;;;;;;;;5081657;28;19966;-67
2020/12/27 05:19:48;;;;;;;;;;;;;;;;;;5084776;28;20554;-69
2020/12/27 05:22:14;;;;;;;;;;;;;;;;;;5088814;28;19944;-69
2020/12/27 05:24:40;;;;;;;;;;;;;;;;;;5071081;28;19999;-69
2020/12/27 05:27:07;;;;;;;;;;;;;;;;;;5090553;28;19963;-67
2020/12/27 05:29:33;;;;;;;;;;;;;;;;;;5084770;28;19913;-68
2020/12/27 05:32:00;;;;;;;;;;;;;;;;;;5080311;28;19912;-69
2020/12/27 05:34:26;;;;;;;;;;;;;;;;;;5090117;28;19930;-68
2020/12/27 05:36:51;;;;;;;;;;;;;;;;;;5070647;28;19955;-68
2020/12/27 05:39:17;;;;;;;;;;;;;;;;;;5071169;28;20024;-67
2020/12/27 05:41:43;;;;;;;;;;;;;;;;;;5090564;28;20360;-68
2020/12/27 05:44:09;;;;;;;;;;;;;;;;;;5071868;28;20380;-68
2020/12/27 05:46:35;;;;;;;;;;;;;;;;;;5090683;28;19943;-68
2020/12/27 05:49:01;;;;;;;;;;;;;;;;;;5080761;28;20007;-68
2020/12/27 05:51:27;;;;;;;;;;;;;;;;;;5078770;28;20454;-68
2020/12/27 05:53:53;;;;;;;;;;;;;;;;;;5089926;28;20007;-69
2020/12/27 05:56:19;;;;;;;;;;;;;;;;;;5071904;28;19948;-68
2020/12/27 05:58:45;;;;;;;;;;;;;;;;;;5089977;28;20391;-67
2020/12/27 06:01:11;;;;;;;;;;;;;;;;;;5088402;28;19943;-68
2020/12/27 06:03:37;;;;;;;;;;;;;;;;;;5089363;28;19980;-69
2020/12/27 06:06:06;;;;;;;;;;;;;;;;;;5090056;28;20015;-68
2020/12/27 06:08:33;;;;;;;;;;;;;;;;;;5089085;28;20330;-68
2020/12/27 06:10:59;;;;;;;;;;;;;;;;;;5089208;28;19912;-69
2020/12/27 06:13:25;;;;;;;;;;;;;;;;;;5070201;28;19955;-68
2020/12/27 06:15:51;;;;;;;;;;;;;;;;;;5084602;28;19999;-68
2020/12/27 06:18:17;;;;;;;;;;;;;;;;;;5070432;28;20363;-68
2020/12/27 06:20:43;;;;;;;;;;;;;;;;;;5090123;28;19965;-66
2020/12/27 06:23:08;;;;;;;;;;;;;;;;;;5080229;28;19912;-68
2020/12/27 06:25:34;;;;;;;;;;;;;;;;;;5090429;28;19927;-68
2020/12/27 06:28:00;;;;;;;;;;;;;;;;;;5062024;28;20455;-69
2020/12/27 06:30:26;;;;;;;;;;;;;;;;;;5087674;28;19916;-67
2020/12/27 06:32:56;;;;;;;;;;;;;;;;;;5088307;28;19959;-68
2020/12/27 06:35:22;;;;;;;;;;;;;;;;;;5087931;28;19920;-68
2020/12/27 06:37:48;;;;;;;;;;;;;;;;;;5087621;28;20359;-66
2020/12/27 06:40:14;;;;;;;;;;;;;;;;;;5087497;28;20003;-68
2020/12/27 06:42:40;;;;;;;;;;;;;;;;;;5071143;28;20000;-68
2020/12/27 06:45:06;;;;;;;;;;;;;;;;;;5072519;28;19955;-68
2020/12/27 06:47:31;;;;;;;;;;;;;;;;;;5085735;28;19938;-68
2020/12/27 06:49:57;;;;;;;;;;;;;;;;;;5105058;28;20047;-69
2020/12/27 06:52:23;;;;;;;;;;;;;;;;;;5098309;28;20461;-68
2020/12/27 06:54:49;;;;;;;;;;;;;;;;;;5072709;28;19962;-68
2020/12/27 06:57:15;;;;;;;;;;;;;;;;;;5085956;28;19959;-68
2020/12/27 06:59:41;;;;;;;;;;;;;;;;;;5089958;28;19974;-68
2020/12/27 07:02:07;;;;;;;;;;;;;;;;;;5090384;28;19995;-68
2020/12/27 07:04:33;;;;;;;;;;;;;;;;;;5088874;28;19927;-69
2020/12/27 07:06:59;;;;;;;;;;;;;;;;;;5077646;28;20000;-69
2020/12/27 07:09:25;;;;;;;;;;;;;;;;;;5072540;28;20049;-68
2020/12/27 07:11:50;;;;;;;;;;;;;;;;;;5076579;28;20393;-68
2020/12/27 07:14:18;;;;;;;;;;;;;;;;;;5076177;28;20006;-69
2020/12/27 07:16:44;;;;;;;;;;;;;;;;;;5095143;28;19922;-69
2020/12/27 07:19:10;;;;;;;;;;;;;;;;;;5082130;28;19999;-69
2020/12/27 07:21:37;;;;;;;;;;;;;;;;;;5088015;28;21524;-68
2020/12/27 07:24:03;;;;;;;;;;;;;;;;;;5093552;28;19919;-67
2020/12/27 07:26:29;;;;;;;;;;;;;;;;;;5094330;28;20346;-69
2020/12/27 07:28:55;;;;;;;;;;;;;;;;;;5093888;28;19908;-68
2020/12/27 07:31:21;;;;;;;;;;;;;;;;;;5094495;28;19908;-69
2020/12/27 07:33:47;;;;;;;;;;;;;;;;;;5092317;28;19916;-68
2020/12/27 07:36:13;;;;;;;;;;;;;;;;;;5092338;28;19912;-68
2020/12/27 07:38:39;;;;;;;;;;;;;;;;;;5092045;28;19947;-68
2020/12/27 07:41:05;;;;;;;;;;;;;;;;;;5073889;28;20010;-67
2020/12/27 07:43:31;;;;;;;;;;;;;;;;;;5080114;28;19916;-68
2020/12/27 07:45:57;;;;;;;;;;;;;;;;;;5091202;28;19916;-69
2020/12/27 07:48:23;;;;;;;;;;;;;;;;;;5065757;28;19970;-66
2020/12/27 07:50:49;;;;;;;;;;;;;;;;;;5091908;28;19955;-68
2020/12/27 07:53:16;;;;;;;;;;;;;;;;;;5074058;28;20437;-68
2020/12/27 07:55:41;;;;;;;;;;;;;;;;;;5092486;28;19912;-67
2020/12/27 07:58:07;;;;;;;;;;;;;;;;;;5084123;28;19913;-67
2020/12/27 08:00:33;;;;;;;;;;;;;;;;;;5090311;28;19908;-67
2020/12/27 08:02:59;;;;;;;;;;;;;;;;;;5072866;28;20006;-69
2020/12/27 08:05:25;;;;;;;;;;;;;;;;;;5083532;28;19944;-66
2020/12/27 08:07:53;;;;;;;;;;;;;;;;;;5100222;28;19989;-67
2020/12/27 08:10:19;;;;;;;;;;;;;;;;;;5088877;28;20086;-67
2020/12/27 08:12:45;;;;;;;;;;;;;;;;;;5092168;28;19987;-68
2020/12/27 08:15:11;;;;;;;;;;;;;;;;;;5072993;28;19916;-69
2020/12/27 08:17:37;;;;;;;;;;;;;;;;;;5073078;28;19916;-67
2020/12/27 08:20:03;;;;;;;;;;;;;;;;;;5061515;28;19912;-68
2020/12/27 08:22:29;;;;;;;;;;;;;;;;;;5089620;28;19922;-67
2020/12/27 08:24:55;;;;;;;;;;;;;;;;;;5091715;28;20343;-68
2020/12/27 08:27:20;;;;;;;;;;;;;;;;;;5095245;28;19923;-67
2020/12/27 08:29:46;;;;;;;;;;;;;;;;;;5078037;28;19922;-68
2020/12/27 08:32:12;;;;;;;;;;;;;;;;;;5089898;28;20036;-66
2020/12/27 08:34:38;;;;;;;;;;;;;;;;;;5089733;28;19941;-68
2020/12/27 08:37:04;;;;;;;;;;;;;;;;;;5084970;28;20525;-67
2020/12/27 08:39:30;;;;;;;;;;;;;;;;;;5085817;28;20010;-67
2020/12/27 08:41:56;;;;;;;;;;;;;;;;;;5072854;28;20033;-70
2020/12/27 08:44:22;;;;;;;;;;;;;;;;;;5091494;28;20396;-69
2020/12/27 08:46:49;;;;;;;;;;;;;;;;;;5092617;28;19995;-68
2020/12/27 08:49:14;;;;;;;;;;;;;;;;;;5090829;28;19923;-67
2020/12/27 08:51:40;;;;;;;;;;;;;;;;;;5089582;28;20117;-68
2020/12/27 08:54:06;;;;;;;;;;;;;;;;;;5080865;28;19923;-68
2020/12/27 08:56:32;;;;;;;;;;;;;;;;;;5087043;28;20003;-66
2020/12/27 08:58:58;;;;;;;;;;;;;;;;;;5068515;28;19962;-69
2020/12/27 09:01:29;;;;;;;;;;;;;;;;;;5081604;28;20007;-68
2020/12/27 09:03:55;;;;;;;;;;;;;;;;;;5092905;28;19909;-67
2020/12/27 09:06:20;;;;;;;;;;;;;;;;;;5072109;28;20006;-67
2020/12/27 09:08:46;;;;;;;;;;;;;;;;;;5090681;28;19962;-68
2020/12/27 09:11:12;;;;;;;;;;;;;;;;;;5090410;28;20385;-68
2020/12/27 09:13:38;;;;;;;;;;;;;;;;;;5086361;28;20395;-68
2020/12/27 09:16:04;;;;;;;;;;;;;;;;;;5085442;28;19939;-67
2020/12/27 09:18:30;;;;;;;;;;;;;;;;;;5086660;28;19955;-68
2020/12/27 09:20:56;;;;;;;;;;;;;;;;;;5085426;28;19959;-70
2020/12/27 09:23:22;;;;;;;;;;;;;;;;;;5069378;28;19956;-69
2020/12/27 09:25:48;;;;;;;;;;;;;;;;;;5092331;28;19991;-68
2020/12/27 09:28:14;;;;;;;;;;;;;;;;;;5070060;28;20157;-69
2020/12/27 09:30:40;;;;;;;;;;;;;;;;;;5071420;28;19963;-69
2020/12/27 09:33:06;;;;;;;;;;;;;;;;;;5089420;28;19911;-69
2020/12/27 09:35:32;;;;;;;;;;;;;;;;;;5089010;28;19939;-69
2020/12/27 09:37:58;;;;;;;;;;;;;;;;;;5090856;28;19959;-69
2020/12/27 09:40:23;;;;;;;;;;;;;;;;;;5081936;28;19951;-69
2020/12/27 09:42:50;;;;;;;;;;;;;;;;;;5088499;28;20391;-69
2020/12/27 09:45:15;;;;;;;;;;;;;;;;;;5092066;28;19916;-69
2020/12/27 09:47:41;;;;;;;;;;;;;;;;;;5091755;28;19946;-70
2020/12/27 09:50:07;;;;;;;;;;;;;;;;;;5072366;28;19914;-69
2020/12/27 09:52:33;;;;;;;;;;;;;;;;;;5081314;28;19914;-69
2020/12/27 09:54:59;;;;;;;;;;;;;;;;;;5091461;28;20479;-69
2020/12/27 09:57:27;;;;;;;;;;;;;;;;;;5081680;28;19934;-70
2020/12/27 09:59:53;;;;;;;;;;;;;;;;;;5087210;28;19916;-69
2020/12/27 10:02:21;;;;;;;;;;;;;;;;;;5087988;28;20026;-69
2020/12/27 10:04:46;;;;;;;;;;;;;;;;;;5066799;28;19908;-70
2020/12/27 10:07:12;;;;;;;;;;;;;;;;;;5059620;28;19919;-68
2020/12/27 10:09:38;;;;;;;;;;;;;;;;;;5082259;28;20389;-69
2020/12/27 10:12:04;;;;;;;;;;;;;;;;;;5073651;28;20344;-71
2020/12/27 10:14:30;;;;;;;;;;;;;;;;;;5066747;28;19943;-70
2020/12/27 10:16:56;;;;;;;;;;;;;;;;;;5093961;28;19950;-69
2020/12/27 10:19:22;;;;;;;;;;;;;;;;;;5071170;28;20402;-68
2020/12/27 10:21:48;;;;;;;;;;;;;;;;;;5088035;28;19916;-67
2020/12/27 10:24:14;;;;;;;;;;;;;;;;;;5090939;28;19951;-67
2020/12/27 10:26:40;;;;;;;;;;;;;;;;;;5072891;28;19951;-71
2020/12/27 10:29:06;;;;;;;;;;;;;;;;;;5084885;28;19908;-69
2020/12/27 10:31:32;;;;;;;;;;;;;;;;;;5103502;28;19919;-70
2020/12/27 10:33:59;;;;;;;;;;;;;;;;;;5110804;28;19939;-69
2020/12/27 10:36:25;;;;;;;;;;;;;;;;;;5091167;28;19916;-68
2020/12/27 10:38:51;;;;;;;;;;;;;;;;;;5091521;28;19920;-69
2020/12/27 10:41:17;;;;;;;;;;;;;;;;;;5088393;28;19955;-69
2020/12/27 10:43:49;;;;;;;;;;;;;;;;;;5088970;28;19963;-69
2020/12/27 10:46:15;;;;;;;;;;;;;;;;;;5088221;28;19974;-69
2020/12/27 10:48:41;;;;;;;;;;;;;;;;;;5088794;28;20062;-69
2020/12/27 10:51:07;;;;;;;;;;;;;;;;;;5061494;28;20398;-70
2020/12/27 10:53:32;;;;;;;;;;;;;;;;;;5086018;28;20401;-69
2020/12/27 10:55:58;;;;;;;;;;;;;;;;;;5082591;28;20014;-68
2020/12/27 10:58:24;;;;;;;;;;;;;;;;;;5088584;28;19994;-68
2020/12/27 11:00:50;;;;;;;;;;;;;;;;;;5090599;28;19904;-69
2020/12/27 11:03:16;;;;;;;;;;;;;;;;;;5083100;28;19920;-70
2020/12/27 11:05:42;;;;;;;;;;;;;;;;;;5088846;28;19904;-68
2020/12/27 11:08:08;;;;;;;;;;;;;;;;;;5086515;28;19947;-68
2020/12/27 11:10:34;;;;;;;;;;;;;;;;;;5088598;28;20007;-69
2020/12/27 11:13:00;;;;;;;;;;;;;;;;;;5065039;28;19963;-68
2020/12/27 11:15:26;;;;;;;;;;;;;;;;;;5089656;28;20035;-70
2020/12/27 11:17:52;;;;;;;;;;;;;;;;;;5076680;28;19909;-68
2020/12/27 11:20:18;;;;;;;;;;;;;;;;;;5089622;28;20489;-68
2020/12/27 11:22:44;;;;;;;;;;;;;;;;;;5069458;28;19935;-68
2020/12/27 11:25:09;;;;;;;;;;;;;;;;;;5087681;28;20421;-68
2020/12/27 11:27:35;;;;;;;;;;;;;;;;;;5087522;28;20371;-68
2020/12/27 11:30:01;;;;;;;;;;;;;;;;;;5083824;28;19958;-68
2020/12/27 11:32:27;;;;;;;;;;;;;;;;;;5089829;28;19974;-70
2020/12/27 11:34:53;;;;;;;;;;;;;;;;;;5069513;28;19951;-68
2020/12/27 11:37:19;;;;;;;;;;;;;;;;;;5089471;28;19955;-68
2020/12/27 11:39:45;;;;;;;;;;;;;;;;;;5072668;28;19951;-68
2020/12/27 11:42:11;;;;;;;;;;;;;;;;;;5088409;28;19950;-69
2020/12/27 11:44:37;;;;;;;;;;;;;;;;;;5072623;28;19958;-69
2020/12/27 11:47:03;;;;;;;;;;;;;;;;;;5071862;28;19920;-67
2020/12/27 11:49:29;;;;;;;;;;;;;;;;;;5088700;28;19955;-68
2020/12/27 11:51:55;;;;;;;;;;;;;;;;;;5088303;28;20019;-68
2020/12/27 11:54:21;;;;;;;;;;;;;;;;;;5065533;28;20315;-69
2020/12/27 11:56:47;;;;;;;;;;;;;;;;;;5091437;28;19948;-69
2020/12/27 11:59:13;;;;;;;;;;;;;;;;;;5091242;28;19994;-68
2020/12/27 12:01:38;;;;;;;;;;;;;;;;;;5085501;28;19955;-68
2020/12/27 12:04:04;;;;;;;;;;;;;;;;;;5088016;28;19956;-69
2020/12/27 12:06:30;;;;;;;;;;;;;;;;;;5091808;28;20344;-68
2020/12/27 12:08:56;;;;;;;;;;;;;;;;;;5074202;28;19950;-68
2020/12/27 12:11:22;;;;;;;;;;;;;;;;;;5092017;28;19971;-69
2020/12/27 12:13:48;;;;;;;;;;;;;;;;;;5088952;28;19971;-69
2020/12/27 12:16:14;;;;;;;;;;;;;;;;;;5088090;28;20376;-69
2020/12/27 12:18:40;;;;;;;;;;;;;;;;;;5072082;28;20015;-68
2020/12/27 12:21:06;;;;;;;;;;;;;;;;;;5091343;28;19995;-69
2020/12/27 12:23:32;;;;;;;;;;;;;;;;;;5071716;28;20362;-67
2020/12/27 12:25:58;;;;;;;;;;;;;;;;;;5089038;28;20410;-66
2020/12/27 12:28:24;;;;;;;;;;;;;;;;;;5071330;28;20387;-67
2020/12/27 12:30:50;;;;;;;;;;;;;;;;;;5090845;28;19959;-67
2020/12/27 12:33:15;;;;;;;;;;;;;;;;;;5091494;28;20021;-67
2020/12/27 12:35:41;;;;;;;;;;;;;;;;;;5085864;28;20003;-68
2020/12/27 12:38:07;;;;;;;;;;;;;;;;;;5093983;23;20026;-68
2020/12/27 12:40:33;;;;;;;;;;;;;;;;;;5065863;28;20604;-70
2020/12/27 12:42:59;;;;;;;;;;;;;;;;;;5069736;28;19947;-70
2020/12/27 12:45:25;;;;;;;;;;;;;;;;;;5071273;28;19964;-69
2020/12/27 12:47:51;;;;;;;;;;;;;;;;;;5072792;28;19921;-69
2020/12/27 12:50:17;;;;;;;;;;;;;;;;;;5071420;28;19908;-69
2020/12/27 12:52:43;;;;;;;;;;;;;;;;;;5070218;28;20376;-70
2020/12/27 12:55:09;;;;;;;;;;;;;;;;;;5061228;28;19956;-70
2020/12/27 12:57:35;;;;;;;;;;;;;;;;;;5069687;28;19962;-68
2020/12/27 13:00:01;;;;;;;;;;;;;;;;;;5073420;28;19913;-70
2020/12/27 13:02:27;;;;;;;;;;;;;;;;;;5068236;28;19915;-68
2020/12/27 13:04:53;;;;;;;;;;;;;;;;;;5070083;28;19971;-69
2020/12/27 13:07:18;;;;;;;;;;;;;;;;;;5070243;28;19921;-68
2020/12/27 13:09:44;;;;;;;;;;;;;;;;;;5060952;28;20368;-67
2020/12/27 13:12:10;;;;;;;;;;;;;;;;;;5066311;28;19947;-69
2020/12/27 13:14:36;;;;;;;;;;;;;;;;;;5069295;28;20435;-69
2020/12/27 13:17:02;;;;;;;;;;;;;;;;;;5069888;28;19951;-68
2020/12/27 13:19:28;;;;;;;;;;;;;;;;;;5069863;28;19964;-69
2020/12/27 13:21:54;;;;;;;;;;;;;;;;;;5065337;28;20003;-69
2020/12/27 13:24:20;;;;;;;;;;;;;;;;;;5071327;28;19958;-69
2020/12/27 13:26:46;;;;;;;;;;;;;;;;;;5062920;28;20442;-69
2020/12/27 13:29:12;;;;;;;;;;;;;;;;;;5063364;28;19918;-69
2020/12/27 13:31:38;;;;;;;;;;;;;;;;;;5053118;28;19908;-69
2020/12/27 13:34:04;;;;;;;;;;;;;;;;;;5070759;28;20405;-69
2020/12/27 13:36:29;;;;;;;;;;;;;;;;;;5064483;28;20003;-71
2020/12/27 13:38:55;;;;;;;;;;;;;;;;;;5071368;28;19959;-69
2020/12/27 13:41:21;;;;;;;;;;;;;;;;;;5069436;28;19912;-70
2020/12/27 13:43:47;;;;;;;;;;;;;;;;;;5061223;28;19965;-70
2020/12/27 13:46:16;;;;;;;;;;;;;;;;;;5065506;28;20339;-69
2020/12/27 13:48:42;;;;;;;;;;;;;;;;;;5064658;28;19920;-71
2020/12/27 13:51:07;;;;;;;;;;;;;;;;;;5066292;28;20284;-70
2020/12/27 13:53:33;;;;;;;;;;;;;;;;;;5071237;28;19912;-70
2020/12/27 13:55:59;;;;;;;;;;;;;;;;;;5064346;28;19909;-69
2020/12/27 13:58:25;;;;;;;;;;;;;;;;;;5076172;28;20003;-69
2020/12/27 14:00:51;;;;;;;;;;;;;;;;;;5068800;28;19954;-70
2020/12/27 14:03:17;;;;;;;;;;;;;;;;;;5068898;28;19912;-69
2020/12/27 14:05:43;;;;;;;;;;;;;;;;;;5070260;28;19970;-70
2020/12/27 14:08:09;;;;;;;;;;;;;;;;;;5073835;28;20244;-70
2020/12/27 14:10:35;;;;;;;;;;;;;;;;;;5071534;28;19948;-71
2020/12/27 14:13:01;;;;;;;;;;;;;;;;;;5063885;28;19913;-71
2020/12/27 14:15:27;;;;;;;;;;;;;;;;;;5057361;28;20380;-70
2020/12/27 14:17:55;;;;;;;;;;;;;;;;;;5073924;28;19943;-70
2020/12/27 14:20:21;;;;;;;;;;;;;;;;;;5071703;28;19913;-71
2020/12/27 14:22:47;;;;;;;;;;;;;;;;;;5070936;28;19967;-70
2020/12/27 14:25:13;;;;;;;;;;;;;;;;;;5069099;28;19959;-71
2020/12/27 14:27:39;;;;;;;;;;;;;;;;;;5061263;28;19950;-70
2020/12/27 14:30:05;;;;;;;;;;;;;;;;;;5063738;28;19909;-70
2020/12/27 14:32:30;;;;;;;;;;;;;;;;;;5069769;28;19912;-70
2020/12/27 14:34:56;;;;;;;;;;;;;;;;;;5070293;28;19947;-72
2020/12/27 14:37:22;;;;;;;;;;;;;;;;;;5065696;28;19955;-71
2020/12/27 14:39:48;;;;;;;;;;;;;;;;;;5070129;28;19917;-69
2020/12/27 14:42:14;;;;;;;;;;;;;;;;;;5069143;28;20268;-70
2020/12/27 14:44:40;;;;;;;;;;;;;;;;;;5070187;28;19955;-70
2020/12/27 14:47:06;;;;;;;;;;;;;;;;;;5075202;28;19939;-70
2020/12/27 14:49:32;;;;;;;;;;;;;;;;;;5070826;28;19963;-71
2020/12/27 14:51:58;;;;;;;;;;;;;;;;;;5071143;28;19970;-70
2020/12/27 14:54:24;;;;;;;;;;;;;;;;;;5071878;28;20348;-70
2020/12/27 14:56:49;;;;;;;;;;;;;;;;;;5068754;28;19920;-71
2020/12/27 14:59:15;;;;;;;;;;;;;;;;;;5082583;28;19919;-71
2020/12/27 15:01:41;;;;;;;;;;;;;;;;;;5060920;28;20403;-70
2020/12/27 15:04:07;;;;;;;;;;;;;;;;;;5070931;28;19919;-70
2020/12/27 15:06:33;;;;;;;;;;;;;;;;;;5068058;28;19916;-70
2020/12/27 15:08:59;;;;;;;;;;;;;;;;;;5070009;28;20002;-70
2020/12/27 15:11:25;;;;;;;;;;;;;;;;;;5067457;28;20299;-70
2020/12/27 15:13:51;;;;;;;;;;;;;;;;;;5069766;28;19971;-70
2020/12/27 15:16:17;;;;;;;;;;;;;;;;;;5067823;28;20004;-70
2020/12/27 15:18:43;;;;;;;;;;;;;;;;;;5063366;28;20023;-70
2020/12/27 15:21:09;;;;;;;;;;;;;;;;;;5063302;28;20313;-70
2020/12/27 15:23:35;;;;;;;;;;;;;;;;;;5070237;28;20383;-71
2020/12/27 15:26:00;;;;;;;;;;;;;;;;;;5065121;28;20363;-69
2020/12/27 15:28:26;;;;;;;;;;;;;;;;;;5063358;28;20358;-70
2020/12/27 15:30:52;;;;;;;;;;;;;;;;;;5049200;28;19919;-70
2020/12/27 15:33:21;;;;;;;;;;;;;;;;;;5066085;28;20019;-71
2020/12/27 15:35:47;;;;;;;;;;;;;;;;;;5072234;28;20002;-70
2020/12/27 15:38:13;;;;;;;;;;;;;;;;;;5063831;28;20007;-70
2020/12/27 15:40:38;;;;;;;;;;;;;;;;;;5066526;28;19959;-70
2020/12/27 15:43:04;;;;;;;;;;;;;;;;;;5062047;28;19932;-70
2020/12/27 15:45:30;;;;;;;;;;;;;;;;;;5086482;28;19913;-71
2020/12/27 15:47:56;;;;;;;;;;;;;;;;;;5071328;28;19948;-69
2020/12/27 15:50:22;;;;;;;;;;;;;;;;;;5072979;28;19955;-71
2020/12/27 15:52:48;;;;;;;;;;;;;;;;;;5068469;28;19935;-71
2020/12/27 15:55:14;;;;;;;;;;;;;;;;;;5073845;28;19959;-70
2020/12/27 15:57:40;;;;;;;;;;;;;;;;;;5068767;28;20008;-70
2020/12/27 16:00:06;;;;;;;;;;;;;;;;;;5072073;28;19991;-71
2020/12/27 16:02:32;;;;;;;;;;;;;;;;;;5072860;28;19909;-71
2020/12/27 16:04:58;;;;;;;;;;;;;;;;;;5077105;28;19931;-69
2020/12/27 16:07:23;;;;;;;;;;;;;;;;;;5071775;28;19908;-71
2020/12/27 16:09:49;;;;;;;;;;;;;;;;;;5076558;28;19955;-70
2020/12/27 16:12:15;;;;;;;;;;;;;;;;;;5074165;28;20498;-70
2020/12/27 16:14:41;;;;;;;;;;;;;;;;;;5073642;28;19960;-71
2020/12/27 16:17:07;;;;;;;;;;;;;;;;;;5083376;28;20445;-70
2020/12/27 16:19:33;;;;;;;;;;;;;;;;;;5072751;28;19920;-70
2020/12/27 16:21:59;;;;;;;;;;;;;;;;;;5068676;28;19956;-70
2020/12/27 16:24:25;;;;;;;;;;;;;;;;;;5053911;28;19935;-70
2020/12/27 16:26:51;;;;;;;;;;;;;;;;;;5086464;28;19956;-71
2020/12/27 16:29:17;;;;;;;;;;;;;;;;;;5072815;28;20454;-71
2020/12/27 16:31:43;;;;;;;;;;;;;;;;;;5073063;28;19913;-70
2020/12/27 16:34:09;;;;;;;;;;;;;;;;;;5072086;28;19929;-69
2020/12/27 16:36:35;;;;;;;;;;;;;;;;;;5071559;28;20411;-70